createdAt,value
2018-08-27T00:00:28.022Z,9.99
2018-08-27T00:01:28.013Z,10.01
2018-08-27T00:02:28.047Z,10.01
2018-08-27T00:03:49.015Z,9.94
2018-08-27T00:04:28.021Z,9.89
2018-08-27T00:05:27.992Z,9.83
2018-08-27T00:06:27.988Z,9.86
2018-08-27T00:07:27.983Z,9.83
2018-08-27T00:08:27.979Z,9.85
2018-08-27T00:09:48.984Z,9.81
2018-08-27T00:10:27.966Z,9.67
2018-08-27T00:11:27.973Z,9.66
2018-08-27T00:12:27.961Z,9.56
2018-08-27T00:13:27.957Z,9.63
2018-08-27T00:14:27.944Z,9.58
2018-08-27T00:15:48.953Z,9.56
2018-08-27T00:16:27.934Z,9.53
2018-08-27T00:17:27.929Z,9.57
2018-08-27T00:18:27.929Z,9.58
2018-08-27T00:19:27.919Z,9.57
2018-08-27T00:20:27.913Z,9.57
2018-08-27T00:21:48.919Z,9.64
2018-08-27T00:22:27.904Z,9.53
2018-08-27T00:23:27.900Z,9.61
2018-08-27T00:24:27.898Z,9.61
2018-08-27T00:25:27.922Z,9.60
2018-08-27T00:26:27.880Z,9.60
2018-08-27T00:27:48.888Z,9.58
2018-08-27T00:28:27.876Z,9.56
2018-08-27T00:29:27.868Z,9.50
2018-08-27T00:30:27.858Z,9.56
2018-08-27T00:31:27.854Z,9.60
2018-08-27T00:32:27.851Z,9.48
2018-08-27T00:33:48.902Z,9.49
2018-08-27T00:34:27.839Z,9.45
2018-08-27T00:35:27.846Z,9.46
2018-08-27T00:36:27.827Z,9.49
2018-08-27T00:37:27.825Z,9.49
2018-08-27T00:38:27.821Z,9.60
2018-08-27T00:39:48.821Z,9.58
2018-08-27T00:40:27.808Z,9.58
2018-08-27T00:41:27.800Z,9.58
2018-08-27T00:42:27.804Z,9.58
2018-08-27T00:43:27.795Z,9.56
2018-08-27T00:44:27.806Z,9.68
2018-08-27T00:45:48.789Z,9.57
2018-08-27T00:46:27.789Z,9.60
2018-08-27T00:47:27.769Z,9.63
2018-08-27T00:48:27.763Z,9.57
2018-08-27T00:49:27.762Z,9.73
2018-08-27T00:50:27.755Z,9.71
2018-08-27T00:51:48.809Z,9.70
2018-08-27T00:52:27.823Z,9.81
2018-08-27T00:53:27.739Z,9.86
2018-08-27T00:54:27.733Z,9.86
2018-08-27T00:55:27.731Z,9.91
2018-08-27T00:56:27.723Z,9.88
2018-08-27T00:57:48.723Z,9.85
2018-08-27T00:58:27.717Z,9.97
2018-08-27T00:59:27.709Z,9.86
2018-08-27T01:00:27.703Z,9.88
2018-08-27T01:01:27.730Z,9.86
2018-08-27T01:02:27.691Z,9.86
2018-08-27T01:03:48.791Z,9.83
2018-08-27T01:04:27.680Z,9.85
2018-08-27T01:05:27.677Z,9.82
2018-08-27T01:06:27.672Z,9.79
2018-08-27T01:07:27.663Z,9.82
2018-08-27T01:08:27.658Z,9.85
2018-08-27T01:09:48.662Z,9.88
2018-08-27T01:10:27.653Z,9.97
2018-08-27T01:11:27.649Z,10.00
2018-08-27T01:12:27.641Z,10.14
2018-08-27T01:13:27.637Z,10.25
2018-08-27T01:14:27.628Z,10.21
2018-08-27T01:15:48.628Z,10.26
2018-08-27T01:16:27.636Z,10.36
2018-08-27T01:17:27.615Z,10.37
2018-08-27T01:18:27.606Z,10.44
2018-08-27T01:19:27.602Z,10.51
2018-08-27T01:20:27.594Z,10.53
2018-08-27T01:21:48.598Z,10.68
2018-08-27T01:22:27.653Z,10.65
2018-08-27T01:23:27.589Z,10.77
2018-08-27T01:24:27.575Z,10.71
2018-08-27T01:25:27.573Z,10.86
2018-08-27T01:26:27.567Z,10.77
2018-08-27T01:27:48.566Z,10.83
2018-08-27T01:28:27.556Z,10.88
2018-08-27T01:29:27.558Z,10.83
2018-08-27T01:30:27.545Z,10.83
2018-08-27T02:04:09.032Z,11.36
2018-08-27T02:05:09.001Z,11.29
2018-08-27T02:07:01.965Z,11.49
2018-08-27T02:08:01.954Z,11.43
2018-08-27T02:09:55.037Z,11.47
2018-08-27T02:10:55.008Z,11.50
2018-08-27T02:12:47.969Z,11.43
2018-08-27T02:13:47.931Z,11.43
2018-08-27T02:15:40.832Z,11.38
2018-08-27T02:16:40.818Z,11.36
2018-08-27T02:18:33.827Z,11.39
2018-08-27T02:19:33.788Z,11.41
2018-08-27T02:21:26.723Z,11.39
2018-08-27T02:22:26.712Z,11.29
2018-08-27T02:24:19.706Z,11.44
2018-08-27T02:25:19.682Z,11.38
2018-08-27T02:27:12.661Z,11.43
2018-08-27T02:28:12.636Z,11.38
2018-08-27T02:30:05.616Z,11.38
2018-08-27T02:31:05.599Z,11.41
2018-08-27T02:32:58.520Z,11.49
2018-08-27T02:33:58.516Z,11.39
2018-08-27T02:35:51.413Z,11.49
2018-08-27T02:36:51.395Z,11.46
2018-08-27T02:38:44.386Z,11.43
2018-08-27T02:39:44.354Z,11.49
2018-08-27T02:41:37.323Z,11.50
2018-08-27T02:42:37.302Z,11.54
2018-08-27T02:44:30.275Z,11.56
2018-08-27T02:45:30.257Z,11.56
2018-08-27T02:46:30.250Z,11.61
2018-08-27T02:47:30.250Z,11.68
2018-08-27T02:48:30.266Z,11.64
2018-08-27T02:49:30.245Z,11.62
2018-08-27T02:50:30.249Z,11.67
2018-08-27T02:51:30.231Z,11.59
2018-08-27T02:52:30.231Z,11.64
2018-08-27T02:53:30.239Z,11.64
2018-08-27T02:54:30.222Z,11.70
2018-08-27T02:55:30.251Z,11.65
2018-08-27T02:56:30.210Z,11.65
2018-08-27T02:57:30.209Z,11.71
2018-08-27T02:58:30.204Z,11.71
2018-08-27T02:59:30.200Z,11.71
2018-08-27T03:00:30.202Z,11.70
2018-08-27T03:01:30.195Z,11.78
2018-08-27T03:02:30.191Z,11.70
2018-08-27T03:03:30.184Z,11.77
2018-08-27T03:04:30.182Z,11.82
2018-08-27T03:05:30.176Z,11.82
2018-08-27T03:06:30.173Z,11.85
2018-08-27T03:07:30.169Z,11.82
2018-08-27T03:08:30.160Z,11.80
2018-08-27T03:09:30.161Z,11.82
2018-08-27T03:10:30.158Z,11.90
2018-08-27T03:11:30.151Z,11.83
2018-08-27T03:12:30.152Z,11.90
2018-08-27T03:13:30.157Z,11.85
2018-08-27T03:14:30.142Z,11.87
2018-08-27T03:15:30.140Z,11.75
2018-08-27T03:16:30.130Z,11.82
2018-08-27T03:17:30.124Z,11.83
2018-08-27T03:18:30.192Z,11.82
2018-08-27T03:19:30.125Z,11.82
2018-08-27T03:20:30.118Z,11.93
2018-08-27T03:21:30.131Z,11.94
2018-08-27T03:22:30.107Z,11.93
2018-08-27T03:23:30.104Z,11.97
2018-08-27T03:24:30.103Z,11.89
2018-08-27T03:25:30.098Z,11.94
2018-08-27T03:26:30.092Z,11.82
2018-08-27T03:27:30.089Z,11.83
2018-08-27T03:28:30.098Z,11.90
2018-08-27T03:29:30.078Z,11.90
2018-08-27T03:30:30.075Z,11.89
2018-08-27T03:31:30.074Z,11.93
2018-08-27T03:32:30.068Z,11.94
2018-08-27T03:33:30.062Z,11.85
2018-08-27T03:34:30.062Z,11.94
2018-08-27T03:35:30.055Z,11.94
2018-08-27T03:36:30.047Z,11.89
2018-08-27T03:37:30.048Z,11.93
2018-08-27T03:38:30.046Z,11.94
2018-08-27T03:39:30.054Z,11.93
2018-08-27T03:40:30.073Z,11.93
2018-08-27T03:41:30.030Z,11.94
2018-08-27T03:42:30.027Z,11.87
2018-08-27T03:43:30.025Z,11.80
2018-08-27T03:44:30.031Z,11.86
2018-08-27T03:45:30.024Z,11.87
2018-08-27T03:46:30.013Z,11.80
2018-08-27T03:47:30.011Z,11.82
2018-08-27T03:48:30.029Z,11.80
2018-08-27T03:49:29.997Z,11.83
2018-08-27T03:50:29.997Z,11.77
2018-08-27T03:51:29.992Z,11.74
2018-08-27T03:52:29.988Z,11.75
2018-08-27T03:53:29.986Z,11.78
2018-08-27T03:54:29.981Z,11.78
2018-08-27T03:55:29.974Z,11.83
2018-08-27T03:56:29.967Z,11.80
2018-08-27T03:57:29.965Z,11.77
2018-08-27T03:58:29.963Z,11.77
2018-08-27T03:59:29.958Z,11.77
2018-08-27T04:00:29.952Z,11.80
2018-08-27T04:01:29.951Z,11.83
2018-08-27T04:02:29.944Z,11.85
2018-08-27T04:03:29.942Z,11.80
2018-08-27T04:04:29.941Z,11.78
2018-08-27T04:05:29.934Z,11.93
2018-08-27T04:06:29.930Z,11.89
2018-08-27T04:07:29.927Z,11.90
2018-08-27T04:08:29.922Z,11.96
2018-08-27T04:09:29.919Z,11.97
2018-08-27T04:10:29.916Z,11.87
2018-08-27T04:11:29.908Z,11.90
2018-08-27T04:12:29.902Z,11.82
2018-08-27T04:13:29.905Z,11.82
2018-08-27T04:14:29.896Z,11.89
2018-08-27T04:15:29.891Z,11.93
2018-08-27T04:16:29.889Z,11.78
2018-08-27T04:17:29.884Z,11.86
2018-08-27T04:18:29.880Z,11.93
2018-08-27T04:19:29.876Z,11.86
2018-08-27T04:20:29.872Z,11.83
2018-08-27T04:21:29.868Z,11.80
2018-08-27T04:22:29.862Z,11.83
2018-08-27T04:23:29.852Z,11.83
2018-08-27T04:24:29.854Z,11.83
2018-08-27T04:25:29.851Z,11.77
2018-08-27T04:26:29.849Z,11.77
2018-08-27T04:27:29.855Z,11.80
2018-08-27T04:28:29.837Z,11.77
2018-08-27T04:29:29.838Z,11.75
2018-08-27T04:30:29.832Z,11.78
2018-08-27T04:31:29.826Z,11.74
2018-08-27T04:32:29.822Z,11.80
2018-08-27T04:33:29.822Z,11.77
2018-08-27T04:34:29.816Z,11.83
2018-08-27T04:35:29.818Z,11.86
2018-08-27T04:36:29.804Z,11.82
2018-08-27T04:37:29.802Z,11.93
2018-08-27T04:38:29.800Z,11.89
2018-08-27T04:39:29.792Z,11.96
2018-08-27T04:40:29.794Z,11.99
2018-08-27T04:41:29.786Z,11.96
2018-08-27T04:42:29.825Z,12.01
2018-08-27T04:43:29.775Z,12.01
2018-08-27T04:44:29.778Z,12.02
2018-08-27T04:45:29.768Z,12.09
2018-08-27T04:46:29.768Z,12.11
2018-08-27T04:47:29.759Z,12.12
2018-08-27T04:48:29.798Z,12.12
2018-08-27T04:49:29.758Z,12.02
2018-08-27T04:50:29.751Z,12.11
2018-08-27T04:51:29.751Z,12.12
2018-08-27T04:52:29.738Z,12.20
2018-08-27T04:53:29.738Z,12.19
2018-08-27T04:54:29.724Z,12.11
2018-08-27T04:55:29.727Z,12.23
2018-08-27T04:56:29.734Z,12.20
2018-08-27T04:57:29.722Z,12.23
2018-08-27T04:58:29.721Z,12.24
2018-08-27T04:59:29.731Z,12.31
2018-08-27T05:00:29.743Z,12.30
2018-08-27T05:01:29.701Z,12.38
2018-08-27T05:02:29.709Z,12.33
2018-08-27T05:03:29.697Z,12.42
2018-08-27T05:04:29.697Z,12.41
2018-08-27T05:05:29.688Z,12.38
2018-08-27T05:06:29.684Z,12.34
2018-08-27T05:07:29.699Z,12.51
2018-08-27T05:08:29.678Z,12.46
2018-08-27T05:09:29.673Z,12.54
2018-08-27T05:10:29.668Z,12.51
2018-08-27T05:11:29.666Z,12.52
2018-08-27T05:12:29.659Z,12.57
2018-08-27T05:13:29.659Z,12.62
2018-08-27T05:14:29.653Z,12.59
2018-08-27T05:15:29.657Z,12.62
2018-08-27T05:16:29.644Z,12.56
2018-08-27T05:17:29.640Z,12.62
2018-08-27T05:18:29.638Z,12.59
2018-08-27T05:19:29.636Z,12.60
2018-08-27T05:20:29.633Z,12.62
2018-08-27T05:21:29.623Z,12.64
2018-08-27T05:22:29.623Z,12.75
2018-08-27T05:23:29.622Z,12.66
2018-08-27T05:24:29.640Z,12.79
2018-08-27T05:25:29.615Z,12.74
2018-08-27T05:26:29.609Z,12.79
2018-08-27T05:27:29.601Z,12.74
2018-08-27T05:28:29.595Z,12.77
2018-08-27T05:29:29.596Z,12.85
2018-08-27T05:30:29.616Z,12.78
2018-08-27T05:31:29.666Z,12.82
2018-08-27T05:32:29.585Z,12.84
2018-08-27T05:33:29.597Z,12.82
2018-08-27T05:34:29.576Z,12.84
2018-08-27T05:35:29.571Z,12.79
2018-08-27T05:36:29.564Z,12.93
2018-08-27T05:37:29.562Z,12.96
2018-08-27T05:38:29.607Z,12.93
2018-08-27T05:39:29.556Z,13.02
2018-08-27T05:40:29.552Z,13.04
2018-08-27T05:41:29.549Z,13.15
2018-08-27T05:42:29.542Z,13.15
2018-08-27T05:43:29.539Z,13.11
2018-08-27T05:44:29.569Z,13.18
2018-08-27T05:45:29.534Z,13.22
2018-08-27T05:46:29.526Z,13.24
2018-08-27T05:47:29.532Z,13.22
2018-08-27T05:48:29.519Z,13.30
2018-08-27T05:49:29.518Z,13.22
2018-08-27T05:50:29.516Z,13.32
2018-08-27T05:51:29.513Z,13.27
2018-08-27T05:52:29.509Z,13.38
2018-08-27T05:53:29.502Z,13.25
2018-08-27T05:54:29.501Z,13.33
2018-08-27T05:55:29.495Z,13.47
2018-08-27T05:56:29.494Z,13.52
2018-08-27T05:57:29.489Z,13.62
2018-08-27T05:58:29.490Z,13.61
2018-08-27T05:59:29.482Z,13.58
2018-08-27T06:00:29.477Z,13.74
2018-08-27T06:01:29.551Z,13.67
2018-08-27T06:02:29.475Z,13.87
2018-08-27T06:03:29.473Z,13.89
2018-08-27T06:04:29.475Z,13.88
2018-08-27T06:05:29.464Z,13.91
2018-08-27T06:06:29.459Z,13.99
2018-08-27T06:07:29.452Z,13.95
2018-08-27T06:08:29.470Z,14.01
2018-08-27T06:09:29.451Z,13.98
2018-08-27T06:10:29.444Z,13.96
2018-08-27T06:11:29.444Z,14.07
2018-08-27T06:12:29.440Z,14.12
2018-08-27T06:13:29.433Z,14.14
2018-08-27T06:14:29.431Z,14.16
2018-08-27T06:15:29.426Z,14.20
2018-08-27T06:16:29.458Z,14.28
2018-08-27T06:17:29.422Z,14.47
2018-08-27T06:18:29.425Z,14.50
2018-08-27T06:19:29.417Z,14.60
2018-08-27T06:20:29.416Z,14.72
2018-08-27T06:21:29.408Z,14.69
2018-08-27T06:22:29.489Z,14.68
2018-08-27T06:23:29.405Z,14.71
2018-08-27T06:24:29.398Z,14.74
2018-08-27T06:25:29.402Z,14.93
2018-08-27T06:26:29.394Z,14.95
2018-08-27T06:27:29.386Z,15.02
2018-08-27T06:28:29.384Z,14.99
2018-08-27T06:29:29.383Z,15.05
2018-08-27T06:30:29.383Z,15.06
2018-08-27T06:31:29.374Z,15.19
2018-08-27T06:32:29.428Z,15.30
2018-08-27T06:33:29.370Z,15.36
2018-08-27T06:34:29.366Z,15.39
2018-08-27T06:35:29.363Z,15.30
2018-08-27T06:36:29.366Z,15.33
2018-08-27T06:37:29.354Z,15.33
2018-08-27T06:38:29.357Z,15.41
2018-08-27T06:39:29.365Z,15.45
2018-08-27T06:40:29.347Z,15.45
2018-08-27T06:41:29.348Z,15.38
2018-08-27T06:42:29.347Z,15.38
2018-08-27T06:43:29.341Z,15.35
2018-08-27T06:44:29.379Z,15.41
2018-08-27T06:45:29.344Z,15.56
2018-08-27T06:46:29.337Z,15.59
2018-08-27T06:47:29.333Z,15.75
2018-08-27T06:48:29.329Z,15.94
2018-08-27T06:49:29.328Z,16.03
2018-08-27T06:50:29.327Z,16.26
2018-08-27T06:51:29.321Z,16.35
2018-08-27T06:52:29.325Z,16.23
2018-08-27T06:53:29.321Z,16.50
2018-08-27T06:54:29.323Z,16.81
2018-08-27T06:55:29.324Z,17.15
2018-08-27T06:56:29.324Z,17.26
2018-08-27T06:57:29.319Z,17.30
2018-08-27T06:58:29.323Z,17.38
2018-08-27T06:59:29.316Z,17.67
2018-08-27T07:00:29.318Z,17.63
2018-08-27T07:01:29.325Z,17.66
2018-08-27T07:02:29.318Z,17.51
2018-08-27T07:03:29.321Z,17.94
2018-08-27T07:04:29.320Z,18.24
2018-08-27T07:05:29.326Z,18.46
2018-08-27T07:06:29.320Z,18.67
2018-08-27T07:07:29.373Z,18.42
2018-08-27T07:08:29.321Z,18.03
2018-08-27T07:09:29.320Z,17.81
2018-08-27T07:10:29.325Z,18.00
2018-08-27T07:11:29.321Z,18.17
2018-08-27T07:12:29.325Z,18.13
2018-08-27T07:13:29.329Z,18.25
2018-08-27T07:14:29.327Z,18.44
2018-08-27T07:15:29.379Z,18.40
2018-08-27T07:16:29.339Z,18.36
2018-08-27T07:17:29.332Z,18.43
2018-08-27T07:18:29.335Z,18.61
2018-08-27T07:19:29.330Z,19.21
2018-08-27T07:20:29.337Z,19.29
2018-08-27T07:21:29.339Z,19.25
2018-08-27T07:22:29.361Z,19.10
2018-08-27T07:23:29.342Z,18.77
2018-08-27T07:24:29.347Z,18.50
2018-08-27T07:25:29.347Z,18.43
2018-08-27T07:26:29.350Z,18.28
2018-08-27T07:27:29.443Z,18.29
2018-08-27T07:28:29.351Z,18.25
2018-08-27T07:29:29.353Z,18.42
2018-08-27T07:30:29.357Z,18.84
2018-08-27T07:31:29.366Z,19.06
2018-08-27T07:32:29.370Z,18.77
2018-08-27T07:33:29.361Z,18.92
2018-08-27T07:34:29.382Z,19.47
2018-08-27T07:35:29.422Z,19.53
2018-08-27T07:36:29.394Z,19.54
2018-08-27T07:37:29.381Z,19.68
2018-08-27T07:38:29.391Z,20.47
2018-08-27T07:39:29.379Z,21.36
2018-08-27T07:40:29.383Z,21.32
2018-08-27T07:41:29.395Z,21.34
2018-08-27T07:42:29.391Z,21.09
2018-08-27T07:43:29.454Z,21.26
2018-08-27T07:44:29.398Z,20.77
2018-08-27T07:45:29.404Z,20.62
2018-08-27T07:46:29.405Z,20.39
2018-08-27T07:47:29.409Z,20.72
2018-08-27T07:48:29.413Z,20.77
2018-08-27T07:49:29.418Z,21.08
2018-08-27T07:50:29.467Z,20.83
2018-08-27T07:51:29.429Z,20.65
2018-08-27T07:52:29.450Z,21.30
2018-08-27T07:53:29.440Z,21.13
2018-08-27T07:54:29.447Z,20.34
2018-08-27T07:55:29.445Z,20.49
2018-08-27T07:56:29.450Z,20.62
2018-08-27T07:57:29.556Z,20.87
2018-08-27T07:58:29.486Z,21.34
2018-08-27T07:59:29.470Z,20.77
2018-08-27T08:00:29.516Z,20.46
2018-08-27T08:01:29.489Z,21.11
2018-08-27T08:02:29.485Z,21.51
2018-08-27T08:03:29.486Z,21.75
2018-08-27T08:04:29.564Z,21.88
2018-08-27T08:05:29.500Z,22.29
2018-08-27T08:06:29.507Z,22.29
2018-08-27T08:07:29.513Z,22.74
2018-08-27T08:08:29.630Z,23.38
2018-08-27T08:09:29.516Z,23.77
2018-08-27T08:10:29.528Z,23.45
2018-08-27T08:11:29.533Z,24.32
2018-08-27T08:12:29.549Z,24.64
2018-08-27T08:13:29.538Z,24.97
2018-08-27T08:14:29.552Z,25.39
2018-08-27T08:15:29.560Z,26.15
2018-08-27T08:16:29.587Z,25.16
2018-08-27T08:17:29.574Z,25.64
2018-08-27T08:18:29.585Z,25.69
2018-08-27T08:19:29.642Z,25.89
2018-08-27T08:20:29.604Z,25.56
2018-08-27T08:21:29.620Z,24.71
2018-08-27T08:22:29.624Z,25.01
2018-08-27T08:23:29.638Z,24.73
2018-08-27T08:24:29.642Z,24.54
2018-08-27T08:25:29.650Z,24.44
2018-08-27T08:26:29.656Z,24.54
2018-08-27T08:27:29.667Z,24.34
2018-08-27T08:28:29.671Z,24.64
2018-08-27T08:29:29.753Z,25.75
2018-08-27T08:30:29.697Z,25.50
2018-08-27T08:31:29.755Z,25.91
2018-08-27T08:32:29.719Z,26.40
2018-08-27T08:33:29.749Z,26.77
2018-08-27T08:34:29.735Z,26.46
2018-08-27T08:35:29.759Z,26.11
2018-08-27T08:36:29.758Z,25.80
2018-08-27T08:37:29.780Z,26.11
2018-08-27T08:38:29.795Z,26.72
2018-08-27T08:39:29.792Z,27.47
2018-08-27T08:40:29.806Z,27.64
2018-08-27T08:41:29.815Z,27.76
2018-08-27T08:42:29.828Z,28.56
2018-08-27T08:43:29.838Z,28.65
2018-08-27T08:44:29.847Z,28.60
2018-08-27T08:45:29.862Z,28.31
2018-08-27T08:46:29.865Z,28.47
2018-08-27T08:47:29.895Z,28.68
2018-08-27T08:48:29.899Z,28.32
2018-08-27T08:49:29.921Z,28.41
2018-08-27T08:50:29.936Z,28.80
2018-08-27T08:51:29.942Z,28.78
2018-08-27T08:52:29.958Z,29.01
2018-08-27T08:53:29.974Z,29.06
2018-08-27T08:54:29.981Z,29.15
2018-08-27T08:55:29.997Z,28.58
2018-08-27T08:56:30.006Z,28.41
2018-08-27T08:57:30.035Z,28.84
2018-08-27T08:58:30.038Z,28.38
2018-08-27T08:59:30.049Z,28.56
2018-08-27T09:00:30.068Z,28.28
2018-08-27T09:01:30.139Z,28.58
2018-08-27T09:02:30.093Z,28.54
2018-08-27T09:03:30.102Z,28.35
2018-08-27T09:04:30.121Z,28.66
2018-08-27T09:05:30.143Z,28.58
2018-08-27T09:06:30.237Z,29.03
2018-08-27T09:07:30.163Z,29.16
2018-08-27T09:08:30.199Z,29.10
2018-08-27T09:09:30.207Z,29.35
2018-08-27T09:10:30.226Z,29.33
2018-08-27T09:11:30.232Z,29.60
2018-08-27T09:12:30.269Z,29.52
2018-08-27T09:13:30.277Z,28.21
2018-08-27T09:14:30.279Z,27.79
2018-08-27T09:15:30.302Z,28.43
2018-08-27T09:16:30.320Z,28.50
2018-08-27T09:17:30.384Z,29.00
2018-08-27T09:18:30.378Z,28.69
2018-08-27T09:19:30.392Z,27.67
2018-08-27T09:20:31.266Z,28.21
2018-08-27T09:21:30.377Z,28.01
2018-08-27T09:22:30.404Z,28.53
2018-08-27T09:23:30.457Z,28.81
2018-08-27T09:24:30.419Z,29.45
2018-08-27T09:25:30.464Z,29.35
2018-08-27T09:26:30.461Z,28.78
2018-08-27T09:27:30.469Z,28.80
2018-08-27T09:28:30.485Z,29.37
2018-08-27T09:29:30.516Z,29.37
2018-08-27T09:30:30.520Z,29.26
2018-08-27T09:31:30.611Z,29.45
2018-08-27T09:32:30.543Z,29.55
2018-08-27T09:33:30.556Z,29.70
2018-08-27T09:34:30.570Z,29.49
2018-08-27T09:35:30.583Z,28.91
2018-08-27T09:36:30.603Z,29.93
2018-08-27T09:37:30.616Z,29.25
2018-08-27T09:38:30.639Z,29.56
2018-08-27T09:39:30.646Z,29.70
2018-08-27T09:40:30.655Z,29.92
2018-08-27T09:41:30.697Z,29.29
2018-08-27T09:42:30.720Z,28.84
2018-08-27T09:43:30.749Z,29.28
2018-08-27T09:44:30.755Z,30.00
2018-08-27T09:45:30.762Z,29.77
2018-08-27T09:46:30.767Z,29.79
2018-08-27T09:47:30.776Z,29.06
2018-08-27T09:48:30.812Z,28.36
2018-08-27T09:49:30.823Z,29.56
2018-08-27T09:50:30.812Z,30.45
2018-08-27T09:51:30.830Z,30.90
2018-08-27T09:52:30.844Z,30.80
2018-08-27T09:53:30.862Z,30.72
2018-08-27T09:54:30.874Z,30.31
2018-08-27T09:55:30.894Z,29.75
2018-08-27T09:56:30.906Z,30.71
2018-08-27T09:57:30.922Z,30.59
2018-08-27T09:58:30.969Z,30.16
2018-08-27T09:59:30.950Z,30.62
2018-08-27T10:00:30.966Z,29.79
2018-08-27T10:01:30.983Z,29.78
2018-08-27T10:02:30.994Z,30.59
2018-08-27T10:03:31.020Z,30.75
2018-08-27T10:04:31.035Z,30.61
2018-08-27T10:05:31.102Z,30.21
2018-08-27T10:06:31.064Z,29.16
2018-08-27T10:07:31.067Z,28.97
2018-08-27T10:08:31.078Z,28.87
2018-08-27T10:09:31.098Z,29.26
2018-08-27T10:10:31.145Z,29.43
2018-08-27T10:11:31.756Z,29.49
2018-08-27T10:12:31.153Z,29.10
2018-08-27T10:13:31.152Z,28.66
2018-08-27T10:14:31.156Z,28.13
2018-08-27T10:15:31.167Z,27.85
2018-08-27T10:16:31.217Z,28.03
2018-08-27T10:17:31.219Z,27.95
2018-08-27T10:18:31.217Z,28.22
2018-08-27T10:19:31.221Z,28.11
2018-08-27T10:20:31.228Z,28.50
2018-08-27T10:21:31.238Z,29.20
2018-08-27T10:22:31.326Z,29.70
2018-08-27T10:23:31.270Z,28.95
2018-08-27T10:24:31.276Z,29.26
2018-08-27T10:25:31.296Z,28.70
2018-08-27T10:26:31.390Z,26.98
2018-08-27T10:27:31.311Z,27.62
2018-08-27T10:28:31.323Z,27.69
2018-08-27T10:29:31.342Z,27.88
2018-08-27T10:30:31.345Z,27.77
2018-08-27T10:31:31.378Z,27.76
2018-08-27T10:32:31.368Z,27.73
2018-08-27T10:33:31.389Z,27.73
2018-08-27T10:34:31.386Z,27.67
2018-08-27T10:35:31.400Z,27.94
2018-08-27T10:36:31.441Z,28.01
2018-08-27T10:37:31.414Z,27.95
2018-08-27T10:38:31.424Z,27.76
2018-08-27T10:39:31.434Z,27.74
2018-08-27T10:40:31.449Z,27.35
2018-08-27T10:41:31.454Z,27.28
2018-08-27T10:42:31.468Z,27.24
2018-08-27T10:43:31.475Z,27.51
2018-08-27T10:44:31.482Z,27.57
2018-08-27T10:45:31.576Z,27.17
2018-08-27T10:46:31.499Z,27.10
2018-08-27T10:47:31.504Z,27.23
2018-08-27T10:48:31.519Z,27.48
2018-08-27T10:49:31.521Z,27.67
2018-08-27T10:50:31.540Z,27.51
2018-08-27T10:51:31.540Z,27.48
2018-08-27T10:52:31.550Z,27.61
2018-08-27T10:53:31.560Z,27.31
2018-08-27T10:54:31.571Z,27.20
2018-08-27T10:55:31.582Z,27.32
2018-08-27T10:56:31.592Z,27.32
2018-08-27T10:57:31.595Z,27.29
2018-08-27T10:58:31.690Z,27.33
2018-08-27T10:59:31.614Z,27.62
2018-08-27T11:00:31.626Z,27.43
2018-08-27T11:01:31.627Z,26.76
2018-08-27T11:02:31.644Z,26.65
2018-08-27T11:03:31.661Z,27.09
2018-08-27T11:04:31.660Z,27.33
2018-08-27T11:05:31.673Z,27.99
2018-08-27T11:06:31.680Z,28.58
2018-08-27T11:07:31.690Z,29.07
2018-08-27T11:08:31.720Z,29.22
2018-08-27T11:09:31.708Z,29.29
2018-08-27T11:10:31.753Z,28.17
2018-08-27T11:11:31.751Z,27.46
2018-08-27T11:12:31.748Z,27.96
2018-08-27T11:13:31.752Z,28.06
2018-08-27T11:14:31.765Z,26.79
2018-08-27T11:15:31.773Z,27.29
2018-08-27T11:16:31.785Z,27.89
2018-08-27T11:17:31.798Z,28.44
2018-08-27T11:18:31.809Z,28.82
2018-08-27T11:19:31.958Z,29.63
2018-08-27T11:20:32.019Z,29.68
2018-08-27T11:21:31.843Z,30.29
2018-08-27T11:22:31.859Z,30.72
2018-08-27T11:23:31.871Z,30.64
2018-08-27T11:24:31.882Z,30.18
2018-08-27T11:25:31.895Z,29.25
2018-08-27T11:26:32.065Z,28.43
2018-08-27T11:27:31.923Z,27.94
2018-08-27T11:28:31.938Z,28.29
2018-08-27T11:29:31.952Z,28.68
2018-08-27T11:30:31.966Z,28.60
2018-08-27T11:31:31.976Z,28.36
2018-08-27T11:32:31.991Z,28.26
2018-08-27T11:33:32.015Z,27.89
2018-08-27T11:34:32.020Z,27.48
2018-08-27T11:35:32.028Z,27.54
2018-08-27T11:36:32.061Z,27.35
2018-08-27T11:37:32.062Z,28.59
2018-08-27T11:38:32.083Z,29.29
2018-08-27T11:39:32.089Z,29.71
2018-08-27T11:40:32.095Z,30.54
2018-08-27T11:41:32.114Z,30.57
2018-08-27T11:42:32.124Z,31.18
2018-08-27T11:43:32.232Z,30.81
2018-08-27T11:44:32.210Z,30.81
2018-08-27T11:45:32.169Z,30.90
2018-08-27T11:46:32.266Z,31.42
2018-08-27T11:47:32.195Z,30.96
2018-08-27T11:48:32.216Z,30.29
2018-08-27T11:49:32.231Z,29.81
2018-08-27T11:50:32.290Z,29.13
2018-08-27T11:51:32.332Z,28.28
2018-08-27T11:52:32.313Z,27.94
2018-08-27T11:53:32.274Z,27.86
2018-08-27T11:54:32.304Z,27.69
2018-08-27T11:55:32.305Z,28.38
2018-08-27T11:56:32.341Z,29.06
2018-08-27T11:57:32.351Z,29.50
2018-08-27T11:58:32.346Z,29.20
2018-08-27T11:59:32.371Z,29.68
2018-08-27T12:00:32.356Z,30.18
2018-08-27T12:01:32.416Z,30.49
2018-08-27T12:02:32.384Z,30.05
2018-08-27T12:03:32.434Z,27.39
2018-08-27T12:04:32.426Z,26.32
2018-08-27T12:05:32.485Z,25.82
2018-08-27T12:06:32.492Z,24.90
2018-08-27T12:07:32.439Z,24.95
2018-08-27T12:08:32.458Z,24.85
2018-08-27T12:09:32.457Z,25.00
2018-08-27T12:10:32.472Z,25.15
2018-08-27T12:11:32.476Z,26.64
2018-08-27T12:12:32.490Z,27.70
2018-08-27T12:13:32.498Z,26.89
2018-08-27T12:14:32.541Z,26.04
2018-08-27T12:15:32.519Z,25.50
2018-08-27T12:16:32.523Z,25.50
2018-08-27T12:17:32.596Z,25.13
2018-08-27T12:18:32.561Z,24.95
2018-08-27T12:19:32.552Z,25.59
2018-08-27T12:20:32.557Z,25.72
2018-08-27T12:21:32.566Z,25.52
2018-08-27T12:22:32.583Z,25.59
2018-08-27T12:23:32.582Z,25.32
2018-08-27T12:24:32.594Z,24.82
2018-08-27T12:25:32.604Z,24.52
2018-08-27T12:26:32.609Z,24.42
2018-08-27T12:27:32.620Z,24.47
2018-08-27T12:28:32.673Z,24.91
2018-08-27T12:29:32.628Z,25.10
2018-08-27T12:30:32.683Z,25.20
2018-08-27T12:31:32.645Z,25.07
2018-08-27T12:32:32.654Z,24.61
2018-08-27T12:33:32.705Z,24.75
2018-08-27T12:34:32.662Z,24.67
2018-08-27T12:35:32.662Z,24.61
2018-08-27T12:36:32.678Z,24.61
2018-08-27T12:37:32.744Z,24.50
2018-08-27T12:38:32.686Z,24.83
2018-08-27T12:39:32.755Z,24.77
2018-08-27T12:40:32.760Z,24.95
2018-08-27T12:41:32.698Z,24.75
2018-08-27T12:42:32.709Z,24.88
2018-08-27T12:43:32.751Z,25.00
2018-08-27T12:44:32.716Z,25.19
2018-08-27T12:45:32.714Z,24.83
2018-08-27T12:46:32.741Z,24.77
2018-08-27T12:47:32.854Z,24.61
2018-08-27T12:48:32.773Z,24.42
2018-08-27T12:49:32.746Z,24.77
2018-08-27T12:50:32.750Z,25.00
2018-08-27T12:51:32.756Z,24.61
2018-08-27T12:52:32.831Z,24.08
2018-08-27T12:53:32.771Z,24.27
2018-08-27T12:54:32.767Z,24.29
2018-08-27T12:55:32.771Z,24.59
2018-08-27T12:56:32.777Z,24.59
2018-08-27T12:57:32.783Z,24.56
2018-08-27T12:58:32.861Z,24.54
2018-08-27T12:59:32.796Z,24.61
2018-08-27T13:00:32.794Z,24.68
2018-08-27T13:01:32.805Z,24.67
2018-08-27T13:02:32.893Z,24.75
2018-08-27T13:03:32.806Z,24.73
2018-08-27T13:04:32.823Z,25.05
2018-08-27T13:05:32.839Z,25.20
2018-08-27T13:06:32.824Z,25.17
2018-08-27T13:07:32.851Z,25.34
2018-08-27T13:08:32.824Z,25.44
2018-08-27T13:09:32.831Z,25.35
2018-08-27T13:10:32.841Z,25.38
2018-08-27T13:11:32.856Z,25.37
2018-08-27T13:12:32.953Z,25.39
2018-08-27T13:13:32.862Z,25.35
2018-08-27T13:14:32.888Z,25.05
2018-08-27T13:15:32.881Z,25.02
2018-08-27T13:16:32.877Z,24.82
2018-08-27T13:17:32.863Z,24.88
2018-08-27T13:18:32.895Z,24.60
2018-08-27T13:19:32.909Z,24.47
2018-08-27T13:20:32.890Z,24.32
2018-08-27T13:21:32.885Z,24.63
2018-08-27T13:22:32.890Z,24.82
2018-08-27T13:23:32.885Z,25.13
2018-08-27T13:24:32.900Z,25.43
2018-08-27T13:25:32.896Z,25.47
2018-08-27T13:26:32.896Z,25.64
2018-08-27T13:27:32.894Z,25.65
2018-08-27T13:28:32.903Z,25.72
2018-08-27T13:29:32.934Z,25.75
2018-08-27T13:30:33.093Z,25.77
2018-08-27T13:31:33.179Z,25.86
2018-08-27T13:32:32.957Z,25.97
2018-08-27T13:33:32.936Z,25.83
2018-08-27T13:34:32.969Z,25.43
2018-08-27T13:35:33.000Z,25.31
2018-08-27T13:36:32.984Z,25.30
2018-08-27T13:37:32.943Z,25.31
2018-08-27T13:38:32.947Z,25.07
2018-08-27T13:39:32.999Z,25.01